sensor_id;sensor_type;location;lat;lon;timestamp;P1;durP1;ratioP1;P2;durP2;ratioP2
9150;SDS011;4610;50.006;7.490;2022-12-07T00:01:21;11.63;;;4.93;;
9150;SDS011;4610;50.006;7.490;2022-12-07T00:03:49;14.07;;;5.37;;
9150;SDS011;4610;50.006;7.490;2022-12-07T00:06:18;14.30;;;5.87;;
9150;SDS011;4610;50.006;7.490;2022-12-07T00:08:47;17.17;;;6.67;;
9150;SDS011;4610;50.006;7.490;2022-12-07T00:11:15;13.70;;;5.80;;
9150;SDS011;4610;50.006;7.490;2022-12-07T00:13:43;13.57;;;5.27;;
9150;SDS011;4610;50.006;7.490;2022-12-07T00:16:11;12.93;;;5.13;;
9150;SDS011;4610;50.006;7.490;2022-12-07T00:18:39;23.50;;;7.37;;
9150;SDS011;4610;50.006;7.490;2022-12-07T00:21:08;12.23;;;5.23;;
9150;SDS011;4610;50.006;7.490;2022-12-07T00:23:37;13.80;;;5.90;;
9150;SDS011;4610;50.006;7.490;2022-12-07T00:26:06;17.33;;;7.10;;
9150;SDS011;4610;50.006;7.490;2022-12-07T00:28:34;23.30;;;8.57;;
9150;SDS011;4610;50.006;7.490;2022-12-07T00:31:02;14.67;;;6.27;;
9150;SDS011;4610;50.006;7.490;2022-12-07T00:33:30;15.33;;;5.80;;
9150;SDS011;4610;50.006;7.490;2022-12-07T00:35:58;11.43;;;4.70;;
9150;SDS011;4610;50.006;7.490;2022-12-07T00:38:27;12.57;;;4.70;;
9150;SDS011;4610;50.006;7.490;2022-12-07T00:40:58;15.17;;;5.70;;
9150;SDS011;4610;50.006;7.490;2022-12-07T00:43:27;13.00;;;4.73;;
9150;SDS011;4610;50.006;7.490;2022-12-07T00:45:54;12.30;;;5.27;;
9150;SDS011;4610;50.006;7.490;2022-12-07T00:48:22;13.97;;;5.03;;
9150;SDS011;4610;50.006;7.490;2022-12-07T00:50:49;13.27;;;5.00;;
9150;SDS011;4610;50.006;7.490;2022-12-07T00:53:16;16.07;;;6.20;;
9150;SDS011;4610;50.006;7.490;2022-12-07T00:55:43;15.17;;;6.00;;
9150;SDS011;4610;50.006;7.490;2022-12-07T00:58:11;15.00;;;5.43;;
9150;SDS011;4610;50.006;7.490;2022-12-07T01:00:40;16.47;;;6.23;;
9150;SDS011;4610;50.006;7.490;2022-12-07T01:03:08;14.97;;;6.07;;
9150;SDS011;4610;50.006;7.490;2022-12-07T01:05:36;14.87;;;5.87;;
9150;SDS011;4610;50.006;7.490;2022-12-07T01:08:03;16.73;;;6.30;;
9150;SDS011;4610;50.006;7.490;2022-12-07T01:10:30;15.70;;;5.57;;
9150;SDS011;4610;50.006;7.490;2022-12-07T01:12:58;14.40;;;5.60;;
9150;SDS011;4610;50.006;7.490;2022-12-07T01:15:25;11.90;;;5.30;;
9150;SDS011;4610;50.006;7.490;2022-12-07T01:17:53;10.80;;;5.50;;
9150;SDS011;4610;50.006;7.490;2022-12-07T01:20:20;13.83;;;6.00;;
9150;SDS011;4610;50.006;7.490;2022-12-07T01:22:47;17.53;;;6.57;;
9150;SDS011;4610;50.006;7.490;2022-12-07T01:25:14;14.43;;;5.93;;
9150;SDS011;4610;50.006;7.490;2022-12-07T01:27:41;17.07;;;7.37;;
9150;SDS011;4610;50.006;7.490;2022-12-07T01:30:09;17.60;;;7.10;;
9150;SDS011;4610;50.006;7.490;2022-12-07T01:32:37;12.67;;;5.97;;
9150;SDS011;4610;50.006;7.490;2022-12-07T01:35:06;16.43;;;6.50;;
9150;SDS011;4610;50.006;7.490;2022-12-07T01:37:34;16.03;;;7.07;;
9150;SDS011;4610;50.006;7.490;2022-12-07T01:40:02;12.30;;;5.73;;
9150;SDS011;4610;50.006;7.490;2022-12-07T01:42:29;15.43;;;6.17;;
9150;SDS011;4610;50.006;7.490;2022-12-07T01:45:28;15.77;;;6.77;;
9150;SDS011;4610;50.006;7.490;2022-12-07T01:48:04;17.67;;;6.43;;
9150;SDS011;4610;50.006;7.490;2022-12-07T01:50:34;11.63;;;5.60;;
9150;SDS011;4610;50.006;7.490;2022-12-07T01:53:02;16.23;;;6.40;;
9150;SDS011;4610;50.006;7.490;2022-12-07T01:55:31;13.90;;;5.83;;
9150;SDS011;4610;50.006;7.490;2022-12-07T01:58:00;15.03;;;5.77;;
9150;SDS011;4610;50.006;7.490;2022-12-07T02:00:27;17.10;;;6.57;;
9150;SDS011;4610;50.006;7.490;2022-12-07T02:02:55;14.50;;;6.53;;
9150;SDS011;4610;50.006;7.490;2022-12-07T02:05:26;16.43;;;7.13;;
9150;SDS011;4610;50.006;7.490;2022-12-07T02:07:55;13.73;;;6.60;;
9150;SDS011;4610;50.006;7.490;2022-12-07T02:10:23;17.50;;;6.63;;
9150;SDS011;4610;50.006;7.490;2022-12-07T02:12:52;16.13;;;6.70;;
9150;SDS011;4610;50.006;7.490;2022-12-07T02:15:24;17.57;;;6.93;;
9150;SDS011;4610;50.006;7.490;2022-12-07T02:17:59;17.63;;;6.93;;
9150;SDS011;4610;50.006;7.490;2022-12-07T02:20:33;19.40;;;7.17;;
9150;SDS011;4610;50.006;7.490;2022-12-07T02:23:19;18.43;;;7.30;;
9150;SDS011;4610;50.006;7.490;2022-12-07T02:29:13;17.07;;;6.87;;
9150;SDS011;4610;50.006;7.490;2022-12-07T02:31:48;16.30;;;6.23;;
9150;SDS011;4610;50.006;7.490;2022-12-07T02:34:22;15.23;;;6.70;;
9150;SDS011;4610;50.006;7.490;2022-12-07T02:36:57;18.17;;;7.40;;
9150;SDS011;4610;50.006;7.490;2022-12-07T02:39:31;17.60;;;7.70;;
9150;SDS011;4610;50.006;7.490;2022-12-07T02:42:07;18.63;;;7.63;;
9150;SDS011;4610;50.006;7.490;2022-12-07T02:44:41;18.47;;;8.23;;
9150;SDS011;4610;50.006;7.490;2022-12-07T02:47:10;11.87;;;6.67;;
9150;SDS011;4610;50.006;7.490;2022-12-07T02:49:40;21.00;;;8.10;;
9150;SDS011;4610;50.006;7.490;2022-12-07T02:52:07;13.30;;;7.37;;
9150;SDS011;4610;50.006;7.490;2022-12-07T02:54:34;17.57;;;8.27;;
9150;SDS011;4610;50.006;7.490;2022-12-07T02:57:02;21.73;;;7.93;;
9150;SDS011;4610;50.006;7.490;2022-12-07T02:59:36;19.30;;;6.93;;
9150;SDS011;4610;50.006;7.490;2022-12-07T03:02:17;18.37;;;8.03;;
9150;SDS011;4610;50.006;7.490;2022-12-07T03:04:52;18.60;;;7.67;;
9150;SDS011;4610;50.006;7.490;2022-12-07T03:07:35;16.23;;;7.23;;
9150;SDS011;4610;50.006;7.490;2022-12-07T03:10:12;18.77;;;7.87;;
9150;SDS011;4610;50.006;7.490;2022-12-07T03:12:45;20.53;;;8.27;;
9150;SDS011;4610;50.006;7.490;2022-12-07T03:15:22;17.67;;;7.83;;
9150;SDS011;4610;50.006;7.490;2022-12-07T03:17:55;16.43;;;7.10;;
9150;SDS011;4610;50.006;7.490;2022-12-07T03:20:25;14.87;;;6.90;;
9150;SDS011;4610;50.006;7.490;2022-12-07T03:22:54;19.87;;;7.80;;
9150;SDS011;4610;50.006;7.490;2022-12-07T03:25:22;17.50;;;7.00;;
9150;SDS011;4610;50.006;7.490;2022-12-07T03:27:51;18.77;;;8.73;;
9150;SDS011;4610;50.006;7.490;2022-12-07T03:30:23;18.07;;;7.37;;
9150;SDS011;4610;50.006;7.490;2022-12-07T03:32:54;19.83;;;8.53;;
9150;SDS011;4610;50.006;7.490;2022-12-07T03:35:27;18.23;;;8.47;;
9150;SDS011;4610;50.006;7.490;2022-12-07T03:37:59;17.67;;;7.17;;
9150;SDS011;4610;50.006;7.490;2022-12-07T03:40:32;20.70;;;8.33;;
9150;SDS011;4610;50.006;7.490;2022-12-07T03:43:03;20.00;;;7.97;;
9150;SDS011;4610;50.006;7.490;2022-12-07T03:45:33;15.63;;;7.17;;
9150;SDS011;4610;50.006;7.490;2022-12-07T03:48:06;16.40;;;7.43;;
9150;SDS011;4610;50.006;7.490;2022-12-07T03:50:38;15.73;;;6.97;;
9150;SDS011;4610;50.006;7.490;2022-12-07T03:53:11;18.40;;;7.87;;
9150;SDS011;4610;50.006;7.490;2022-12-07T03:55:42;16.17;;;7.53;;
9150;SDS011;4610;50.006;7.490;2022-12-07T03:58:12;16.70;;;7.63;;
9150;SDS011;4610;50.006;7.490;2022-12-07T04:00:43;17.50;;;7.57;;
9150;SDS011;4610;50.006;7.490;2022-12-07T04:03:10;17.23;;;7.40;;
9150;SDS011;4610;50.006;7.490;2022-12-07T04:05:37;18.23;;;7.00;;
9150;SDS011;4610;50.006;7.490;2022-12-07T04:08:05;19.10;;;7.90;;
9150;SDS011;4610;50.006;7.490;2022-12-07T04:10:32;16.60;;;6.80;;
9150;SDS011;4610;50.006;7.490;2022-12-07T04:12:59;13.97;;;5.87;;
9150;SDS011;4610;50.006;7.490;2022-12-07T04:15:26;15.20;;;6.50;;
9150;SDS011;4610;50.006;7.490;2022-12-07T04:17:54;17.90;;;7.37;;
9150;SDS011;4610;50.006;7.490;2022-12-07T04:20:21;16.57;;;6.87;;
9150;SDS011;4610;50.006;7.490;2022-12-07T04:22:49;16.93;;;7.00;;
9150;SDS011;4610;50.006;7.490;2022-12-07T04:25:15;22.83;;;8.33;;
9150;SDS011;4610;50.006;7.490;2022-12-07T04:27:42;18.30;;;7.70;;
9150;SDS011;4610;50.006;7.490;2022-12-07T04:30:09;13.67;;;6.60;;
9150;SDS011;4610;50.006;7.490;2022-12-07T04:32:36;19.17;;;7.67;;
9150;SDS011;4610;50.006;7.490;2022-12-07T04:35:05;17.73;;;7.67;;
9150;SDS011;4610;50.006;7.490;2022-12-07T04:37:32;18.80;;;7.80;;
9150;SDS011;4610;50.006;7.490;2022-12-07T04:39:59;21.53;;;8.60;;
9150;SDS011;4610;50.006;7.490;2022-12-07T04:42:26;18.93;;;7.93;;
9150;SDS011;4610;50.006;7.490;2022-12-07T04:44:53;19.40;;;8.40;;
9150;SDS011;4610;50.006;7.490;2022-12-07T04:47:20;17.57;;;8.13;;
9150;SDS011;4610;50.006;7.490;2022-12-07T04:49:47;23.57;;;8.20;;
9150;SDS011;4610;50.006;7.490;2022-12-07T04:52:15;17.43;;;7.87;;
9150;SDS011;4610;50.006;7.490;2022-12-07T04:54:41;15.77;;;7.60;;
9150;SDS011;4610;50.006;7.490;2022-12-07T04:57:08;18.80;;;7.33;;
9150;SDS011;4610;50.006;7.490;2022-12-07T04:59:35;20.07;;;7.33;;
9150;SDS011;4610;50.006;7.490;2022-12-07T05:02:02;20.03;;;7.90;;
9150;SDS011;4610;50.006;7.490;2022-12-07T05:04:29;17.50;;;8.10;;
9150;SDS011;4610;50.006;7.490;2022-12-07T05:06:56;54.13;;;13.73;;
9150;SDS011;4610;50.006;7.490;2022-12-07T05:09:24;15.57;;;7.77;;
9150;SDS011;4610;50.006;7.490;2022-12-07T05:11:51;17.43;;;7.37;;
9150;SDS011;4610;50.006;7.490;2022-12-07T05:14:18;18.73;;;8.20;;
9150;SDS011;4610;50.006;7.490;2022-12-07T05:16:47;19.80;;;7.20;;
9150;SDS011;4610;50.006;7.490;2022-12-07T05:19:16;19.00;;;7.77;;
9150;SDS011;4610;50.006;7.490;2022-12-07T05:21:43;20.77;;;8.17;;
9150;SDS011;4610;50.006;7.490;2022-12-07T05:24:11;20.30;;;7.83;;
9150;SDS011;4610;50.006;7.490;2022-12-07T05:26:41;17.33;;;7.63;;
9150;SDS011;4610;50.006;7.490;2022-12-07T05:29:10;19.10;;;8.50;;
9150;SDS011;4610;50.006;7.490;2022-12-07T05:31:39;19.27;;;8.70;;
9150;SDS011;4610;50.006;7.490;2022-12-07T05:34:06;17.50;;;8.33;;
9150;SDS011;4610;50.006;7.490;2022-12-07T05:36:33;19.67;;;8.17;;
9150;SDS011;4610;50.006;7.490;2022-12-07T05:38:59;20.07;;;9.07;;
9150;SDS011;4610;50.006;7.490;2022-12-07T05:41:26;19.57;;;7.80;;
9150;SDS011;4610;50.006;7.490;2022-12-07T05:44:12;17.73;;;7.87;;
9150;SDS011;4610;50.006;7.490;2022-12-07T05:46:39;22.93;;;8.40;;
9150;SDS011;4610;50.006;7.490;2022-12-07T05:49:06;20.53;;;7.90;;
9150;SDS011;4610;50.006;7.490;2022-12-07T05:51:33;15.80;;;7.53;;
9150;SDS011;4610;50.006;7.490;2022-12-07T05:54:00;20.07;;;8.97;;
9150;SDS011;4610;50.006;7.490;2022-12-07T05:56:26;24.13;;;8.63;;
9150;SDS011;4610;50.006;7.490;2022-12-07T05:58:53;19.43;;;8.13;;
9150;SDS011;4610;50.006;7.490;2022-12-07T06:01:39;23.00;;;9.30;;
9150;SDS011;4610;50.006;7.490;2022-12-07T06:04:06;21.00;;;8.87;;
9150;SDS011;4610;50.006;7.490;2022-12-07T06:06:33;25.73;;;9.27;;
9150;SDS011;4610;50.006;7.490;2022-12-07T06:09:00;22.90;;;8.77;;
9150;SDS011;4610;50.006;7.490;2022-12-07T06:11:26;22.77;;;8.83;;
9150;SDS011;4610;50.006;7.490;2022-12-07T06:14:11;19.70;;;8.33;;
9150;SDS011;4610;50.006;7.490;2022-12-07T06:16:39;23.03;;;8.33;;
9150;SDS011;4610;50.006;7.490;2022-12-07T06:19:06;17.00;;;7.33;;
9150;SDS011;4610;50.006;7.490;2022-12-07T06:21:33;21.00;;;8.47;;
9150;SDS011;4610;50.006;7.490;2022-12-07T06:24:00;20.07;;;7.93;;
9150;SDS011;4610;50.006;7.490;2022-12-07T06:26:27;16.73;;;7.33;;
9150;SDS011;4610;50.006;7.490;2022-12-07T06:28:54;18.20;;;8.07;;
9150;SDS011;4610;50.006;7.490;2022-12-07T06:31:20;19.07;;;8.17;;
9150;SDS011;4610;50.006;7.490;2022-12-07T06:33:49;20.40;;;7.73;;
9150;SDS011;4610;50.006;7.490;2022-12-07T06:36:16;19.30;;;8.07;;
9150;SDS011;4610;50.006;7.490;2022-12-07T06:38:42;18.00;;;8.10;;
9150;SDS011;4610;50.006;7.490;2022-12-07T06:41:10;13.60;;;7.40;;
9150;SDS011;4610;50.006;7.490;2022-12-07T06:43:36;21.10;;;7.73;;
9150;SDS011;4610;50.006;7.490;2022-12-07T06:46:03;17.80;;;7.63;;
9150;SDS011;4610;50.006;7.490;2022-12-07T06:48:30;34.37;;;10.27;;
9150;SDS011;4610;50.006;7.490;2022-12-07T06:50:58;12.00;;;3.70;;
9150;SDS011;4610;50.006;7.490;2022-12-07T06:53:25;21.47;;;8.43;;
9150;SDS011;4610;50.006;7.490;2022-12-07T06:55:52;18.07;;;8.03;;
9150;SDS011;4610;50.006;7.490;2022-12-07T06:58:19;18.27;;;7.93;;
9150;SDS011;4610;50.006;7.490;2022-12-07T07:00:47;14.50;;;7.27;;
9150;SDS011;4610;50.006;7.490;2022-12-07T07:03:14;19.73;;;7.53;;
9150;SDS011;4610;50.006;7.490;2022-12-07T07:05:41;20.37;;;7.60;;
9150;SDS011;4610;50.006;7.490;2022-12-07T07:08:10;14.20;;;6.33;;
9150;SDS011;4610;50.006;7.490;2022-12-07T07:10:37;16.83;;;6.50;;
9150;SDS011;4610;50.006;7.490;2022-12-07T07:13:04;18.37;;;7.00;;
9150;SDS011;4610;50.006;7.490;2022-12-07T07:15:31;15.03;;;6.10;;
9150;SDS011;4610;50.006;7.490;2022-12-07T07:17:58;19.10;;;7.20;;
9150;SDS011;4610;50.006;7.490;2022-12-07T07:20:25;14.97;;;6.10;;
9150;SDS011;4610;50.006;7.490;2022-12-07T07:22:53;15.30;;;6.00;;
9150;SDS011;4610;50.006;7.490;2022-12-07T07:25:22;12.40;;;5.17;;
9150;SDS011;4610;50.006;7.490;2022-12-07T07:27:49;16.57;;;6.10;;
9150;SDS011;4610;50.006;7.490;2022-12-07T07:30:16;7.00;;;4.43;;
9150;SDS011;4610;50.006;7.490;2022-12-07T07:32:42;13.33;;;5.53;;
9150;SDS011;4610;50.006;7.490;2022-12-07T07:35:09;15.50;;;6.07;;
9150;SDS011;4610;50.006;7.490;2022-12-07T07:37:36;15.33;;;5.53;;
9150;SDS011;4610;50.006;7.490;2022-12-07T07:40:03;14.23;;;5.37;;
9150;SDS011;4610;50.006;7.490;2022-12-07T07:42:32;16.60;;;5.47;;
9150;SDS011;4610;50.006;7.490;2022-12-07T07:44:59;19.30;;;6.00;;
9150;SDS011;4610;50.006;7.490;2022-12-07T07:47:26;14.30;;;5.93;;
9150;SDS011;4610;50.006;7.490;2022-12-07T07:49:54;9.27;;;5.37;;
9150;SDS011;4610;50.006;7.490;2022-12-07T07:52:20;13.67;;;5.90;;
9150;SDS011;4610;50.006;7.490;2022-12-07T07:54:47;16.93;;;6.83;;
9150;SDS011;4610;50.006;7.490;2022-12-07T07:57:14;13.17;;;5.93;;
9150;SDS011;4610;50.006;7.490;2022-12-07T07:59:43;13.37;;;5.80;;
9150;SDS011;4610;50.006;7.490;2022-12-07T08:02:11;14.60;;;5.93;;
9150;SDS011;4610;50.006;7.490;2022-12-07T08:04:40;17.53;;;5.57;;
9150;SDS011;4610;50.006;7.490;2022-12-07T08:07:07;13.60;;;5.63;;
9150;SDS011;4610;50.006;7.490;2022-12-07T08:09:34;17.57;;;5.90;;
9150;SDS011;4610;50.006;7.490;2022-12-07T08:12:01;9.23;;;5.00;;
9150;SDS011;4610;50.006;7.490;2022-12-07T08:14:28;10.17;;;4.87;;
9150;SDS011;4610;50.006;7.490;2022-12-07T08:16:56;17.63;;;5.70;;
9150;SDS011;4610;50.006;7.490;2022-12-07T08:19:23;13.63;;;5.07;;
9150;SDS011;4610;50.006;7.490;2022-12-07T08:21:50;12.67;;;5.77;;
9150;SDS011;4610;50.006;7.490;2022-12-07T08:24:17;12.93;;;4.67;;
9150;SDS011;4610;50.006;7.490;2022-12-07T08:26:44;12.63;;;5.20;;
9150;SDS011;4610;50.006;7.490;2022-12-07T08:29:11;6.97;;;3.40;;
9150;SDS011;4610;50.006;7.490;2022-12-07T08:31:38;8.30;;;4.07;;
9150;SDS011;4610;50.006;7.490;2022-12-07T08:34:09;9.97;;;4.27;;
9150;SDS011;4610;50.006;7.490;2022-12-07T08:36:36;13.60;;;4.37;;
9150;SDS011;4610;50.006;7.490;2022-12-07T08:39:03;15.07;;;4.73;;
9150;SDS011;4610;50.006;7.490;2022-12-07T08:41:30;13.90;;;4.30;;
9150;SDS011;4610;50.006;7.490;2022-12-07T08:43:56;13.33;;;4.20;;
9150;SDS011;4610;50.006;7.490;2022-12-07T08:46:24;12.50;;;4.17;;
9150;SDS011;4610;50.006;7.490;2022-12-07T08:48:55;13.97;;;4.07;;
9150;SDS011;4610;50.006;7.490;2022-12-07T08:51:27;12.50;;;4.07;;
9150;SDS011;4610;50.006;7.490;2022-12-07T08:53:54;11.57;;;3.87;;
9150;SDS011;4610;50.006;7.490;2022-12-07T08:56:22;14.00;;;4.17;;
9150;SDS011;4610;50.006;7.490;2022-12-07T08:58:50;7.97;;;3.37;;
9150;SDS011;4610;50.006;7.490;2022-12-07T09:01:18;13.17;;;4.00;;
9150;SDS011;4610;50.006;7.490;2022-12-07T09:03:45;13.17;;;3.63;;
9150;SDS011;4610;50.006;7.490;2022-12-07T09:06:12;10.23;;;3.57;;
9150;SDS011;4610;50.006;7.490;2022-12-07T09:08:40;18.53;;;5.37;;
9150;SDS011;4610;50.006;7.490;2022-12-07T09:11:09;11.33;;;3.83;;
9150;SDS011;4610;50.006;7.490;2022-12-07T09:13:36;12.00;;;4.33;;
9150;SDS011;4610;50.006;7.490;2022-12-07T09:16:03;11.10;;;3.77;;
9150;SDS011;4610;50.006;7.490;2022-12-07T09:18:30;21.50;;;6.60;;
9150;SDS011;4610;50.006;7.490;2022-12-07T09:20:57;10.37;;;4.00;;
9150;SDS011;4610;50.006;7.490;2022-12-07T09:23:24;5.43;;;3.03;;
9150;SDS011;4610;50.006;7.490;2022-12-07T09:25:52;12.30;;;4.37;;
9150;SDS011;4610;50.006;7.490;2022-12-07T09:28:19;14.40;;;4.43;;
9150;SDS011;4610;50.006;7.490;2022-12-07T09:30:46;13.47;;;4.17;;
9150;SDS011;4610;50.006;7.490;2022-12-07T09:33:13;13.37;;;4.87;;
9150;SDS011;4610;50.006;7.490;2022-12-07T09:35:43;12.83;;;4.33;;
9150;SDS011;4610;50.006;7.490;2022-12-07T09:38:10;13.40;;;4.33;;
9150;SDS011;4610;50.006;7.490;2022-12-07T09:40:37;12.47;;;4.00;;
9150;SDS011;4610;50.006;7.490;2022-12-07T09:43:10;14.40;;;4.73;;
9150;SDS011;4610;50.006;7.490;2022-12-07T09:45:39;13.97;;;4.10;;
9150;SDS011;4610;50.006;7.490;2022-12-07T09:48:08;14.70;;;4.40;;
9150;SDS011;4610;50.006;7.490;2022-12-07T09:50:42;14.60;;;4.20;;
9150;SDS011;4610;50.006;7.490;2022-12-07T09:53:09;8.13;;;3.53;;
9150;SDS011;4610;50.006;7.490;2022-12-07T09:55:41;12.70;;;4.17;;
9150;SDS011;4610;50.006;7.490;2022-12-07T09:58:12;13.67;;;3.90;;
9150;SDS011;4610;50.006;7.490;2022-12-07T10:00:46;9.93;;;4.17;;
9150;SDS011;4610;50.006;7.490;2022-12-07T10:03:13;11.27;;;4.13;;
9150;SDS011;4610;50.006;7.490;2022-12-07T10:05:41;11.10;;;3.47;;
9150;SDS011;4610;50.006;7.490;2022-12-07T10:08:10;11.17;;;3.67;;
9150;SDS011;4610;50.006;7.490;2022-12-07T10:10:39;12.27;;;4.00;;
9150;SDS011;4610;50.006;7.490;2022-12-07T10:13:06;11.40;;;3.83;;
9150;SDS011;4610;50.006;7.490;2022-12-07T10:15:43;11.87;;;4.27;;
9150;SDS011;4610;50.006;7.490;2022-12-07T10:21:11;16.73;;;4.30;;
9150;SDS011;4610;50.006;7.490;2022-12-07T10:23:40;13.40;;;4.00;;
9150;SDS011;4610;50.006;7.490;2022-12-07T10:26:21;11.37;;;3.60;;
9150;SDS011;4610;50.006;7.490;2022-12-07T10:28:54;11.30;;;3.93;;
9150;SDS011;4610;50.006;7.490;2022-12-07T10:31:23;12.10;;;4.03;;
9150;SDS011;4610;50.006;7.490;2022-12-07T10:33:50;13.73;;;3.57;;
9150;SDS011;4610;50.006;7.490;2022-12-07T10:36:19;16.27;;;3.90;;
9150;SDS011;4610;50.006;7.490;2022-12-07T10:38:49;14.00;;;3.90;;
9150;SDS011;4610;50.006;7.490;2022-12-07T10:41:19;7.30;;;3.13;;
9150;SDS011;4610;50.006;7.490;2022-12-07T10:43:46;12.57;;;3.80;;
9150;SDS011;4610;50.006;7.490;2022-12-07T10:49:09;11.07;;;3.73;;
9150;SDS011;4610;50.006;7.490;2022-12-07T10:51:51;13.07;;;3.80;;
9150;SDS011;4610;50.006;7.490;2022-12-07T10:54:26;11.10;;;3.50;;
9150;SDS011;4610;50.006;7.490;2022-12-07T10:57:05;9.90;;;3.10;;
9150;SDS011;4610;50.006;7.490;2022-12-07T10:59:53;11.37;;;3.30;;
9150;SDS011;4610;50.006;7.490;2022-12-07T11:02:34;9.80;;;3.20;;
9150;SDS011;4610;50.006;7.490;2022-12-07T11:05:23;9.73;;;3.33;;
9150;SDS011;4610;50.006;7.490;2022-12-07T11:07:59;11.37;;;3.37;;
9150;SDS011;4610;50.006;7.490;2022-12-07T11:10:33;12.60;;;3.43;;
9150;SDS011;4610;50.006;7.490;2022-12-07T11:13:14;13.07;;;3.30;;
9150;SDS011;4610;50.006;7.490;2022-12-07T11:15:53;10.13;;;3.30;;
9150;SDS011;4610;50.006;7.490;2022-12-07T11:18:32;15.23;;;4.43;;
9150;SDS011;4610;50.006;7.490;2022-12-07T11:21:09;9.67;;;2.60;;
9150;SDS011;4610;50.006;7.490;2022-12-07T11:23:44;8.83;;;2.70;;
9150;SDS011;4610;50.006;7.490;2022-12-07T11:26:18;8.83;;;2.70;;
9150;SDS011;4610;50.006;7.490;2022-12-07T11:29:06;9.07;;;2.97;;
9150;SDS011;4610;50.006;7.490;2022-12-07T11:31:50;10.30;;;2.70;;
9150;SDS011;4610;50.006;7.490;2022-12-07T11:34:27;10.67;;;2.70;;
9150;SDS011;4610;50.006;7.490;2022-12-07T11:37:02;9.33;;;2.83;;
9150;SDS011;4610;50.006;7.490;2022-12-07T11:39:39;11.67;;;2.63;;
9150;SDS011;4610;50.006;7.490;2022-12-07T11:42:09;4.90;;;2.03;;
9150;SDS011;4610;50.006;7.490;2022-12-07T11:44:45;10.60;;;2.93;;
9150;SDS011;4610;50.006;7.490;2022-12-07T11:47:18;10.33;;;3.17;;
9150;SDS011;4610;50.006;7.490;2022-12-07T11:49:53;15.33;;;3.00;;
9150;SDS011;4610;50.006;7.490;2022-12-07T11:52:22;9.47;;;2.73;;
9150;SDS011;4610;50.006;7.490;2022-12-07T11:54:55;10.50;;;2.87;;
9150;SDS011;4610;50.006;7.490;2022-12-07T11:57:27;9.37;;;2.80;;
9150;SDS011;4610;50.006;7.490;2022-12-07T12:00:00;4.10;;;2.10;;
9150;SDS011;4610;50.006;7.490;2022-12-07T12:02:32;10.60;;;3.33;;
9150;SDS011;4610;50.006;7.490;2022-12-07T12:05:09;7.33;;;2.87;;
9150;SDS011;4610;50.006;7.490;2022-12-07T12:07:41;9.20;;;2.67;;
9150;SDS011;4610;50.006;7.490;2022-12-07T12:10:15;12.70;;;2.73;;
9150;SDS011;4610;50.006;7.490;2022-12-07T12:12:53;4.53;;;2.33;;
9150;SDS011;4610;50.006;7.490;2022-12-07T12:15:38;8.77;;;2.77;;
9150;SDS011;4610;50.006;7.490;2022-12-07T12:18:31;12.53;;;3.33;;
9150;SDS011;4610;50.006;7.490;2022-12-07T12:21:25;10.53;;;3.00;;
9150;SDS011;4610;50.006;7.490;2022-12-07T12:23:55;9.30;;;2.60;;
9150;SDS011;4610;50.006;7.490;2022-12-07T12:26:25;12.00;;;3.07;;
9150;SDS011;4610;50.006;7.490;2022-12-07T12:28:54;11.50;;;2.87;;
9150;SDS011;4610;50.006;7.490;2022-12-07T12:34:31;8.53;;;2.93;;
9150;SDS011;4610;50.006;7.490;2022-12-07T12:37:17;9.47;;;3.23;;
9150;SDS011;4610;50.006;7.490;2022-12-07T12:55:29;14.67;;;3.90;;
9150;SDS011;4610;50.006;7.490;2022-12-07T12:58:30;13.83;;;3.73;;
9150;SDS011;4610;50.006;7.490;2022-12-07T13:04:14;20.70;;;5.00;;
9150;SDS011;4610;50.006;7.490;2022-12-07T13:07:05;10.63;;;3.77;;
9150;SDS011;4610;50.006;7.490;2022-12-07T13:09:39;12.70;;;3.47;;
9150;SDS011;4610;50.006;7.490;2022-12-07T13:12:12;14.00;;;3.43;;
9150;SDS011;4610;50.006;7.490;2022-12-07T13:14:42;13.43;;;3.37;;
9150;SDS011;4610;50.006;7.490;2022-12-07T13:23:18;19.23;;;4.13;;
9150;SDS011;4610;50.006;7.490;2022-12-07T13:26:04;16.93;;;3.80;;
9150;SDS011;4610;50.006;7.490;2022-12-07T13:28:44;16.50;;;3.97;;
9150;SDS011;4610;50.006;7.490;2022-12-07T13:31:20;12.67;;;3.20;;
9150;SDS011;4610;50.006;7.490;2022-12-07T13:33:56;13.03;;;3.37;;
9150;SDS011;4610;50.006;7.490;2022-12-07T13:36:24;15.53;;;4.00;;
9150;SDS011;4610;50.006;7.490;2022-12-07T13:38:52;14.70;;;4.03;;
9150;SDS011;4610;50.006;7.490;2022-12-07T13:41:23;17.20;;;3.70;;
9150;SDS011;4610;50.006;7.490;2022-12-07T13:43:52;10.40;;;3.13;;
9150;SDS011;4610;50.006;7.490;2022-12-07T13:46:25;16.40;;;4.07;;
9150;SDS011;4610;50.006;7.490;2022-12-07T13:48:58;17.20;;;3.50;;
9150;SDS011;4610;50.006;7.490;2022-12-07T13:51:25;12.93;;;3.50;;
9150;SDS011;4610;50.006;7.490;2022-12-07T13:53:54;18.27;;;4.17;;
9150;SDS011;4610;50.006;7.490;2022-12-07T13:56:27;13.53;;;3.83;;
9150;SDS011;4610;50.006;7.490;2022-12-07T13:58:58;15.87;;;3.90;;
9150;SDS011;4610;50.006;7.490;2022-12-07T14:01:26;10.43;;;3.07;;
9150;SDS011;4610;50.006;7.490;2022-12-07T14:03:54;13.33;;;3.33;;
9150;SDS011;4610;50.006;7.490;2022-12-07T14:06:23;13.07;;;3.33;;
9150;SDS011;4610;50.006;7.490;2022-12-07T14:09:07;17.87;;;3.63;;
9150;SDS011;4610;50.006;7.490;2022-12-07T14:11:36;9.50;;;2.67;;
9150;SDS011;4610;50.006;7.490;2022-12-07T14:14:04;12.10;;;3.13;;
9150;SDS011;4610;50.006;7.490;2022-12-07T14:16:32;15.30;;;3.70;;
9150;SDS011;4610;50.006;7.490;2022-12-07T14:19:01;21.97;;;4.53;;
9150;SDS011;4610;50.006;7.490;2022-12-07T14:21:30;14.07;;;3.67;;
9150;SDS011;4610;50.006;7.490;2022-12-07T14:24:02;13.03;;;3.40;;
9150;SDS011;4610;50.006;7.490;2022-12-07T14:26:37;13.47;;;3.83;;
9150;SDS011;4610;50.006;7.490;2022-12-07T14:29:21;14.03;;;3.77;;
9150;SDS011;4610;50.006;7.490;2022-12-07T14:31:55;9.70;;;2.80;;
9150;SDS011;4610;50.006;7.490;2022-12-07T14:34:24;13.83;;;3.40;;
9150;SDS011;4610;50.006;7.490;2022-12-07T14:36:51;13.93;;;3.03;;
9150;SDS011;4610;50.006;7.490;2022-12-07T14:39:18;14.27;;;3.37;;
9150;SDS011;4610;50.006;7.490;2022-12-07T14:41:46;10.30;;;3.00;;
9150;SDS011;4610;50.006;7.490;2022-12-07T14:44:16;10.97;;;2.97;;
9150;SDS011;4610;50.006;7.490;2022-12-07T14:46:45;16.17;;;3.57;;
9150;SDS011;4610;50.006;7.490;2022-12-07T14:49:12;54.33;;;8.73;;
9150;SDS011;4610;50.006;7.490;2022-12-07T14:51:40;71.87;;;10.27;;
9150;SDS011;4610;50.006;7.490;2022-12-07T14:54:11;83.27;;;12.03;;
9150;SDS011;4610;50.006;7.490;2022-12-07T14:56:43;65.80;;;9.87;;
9150;SDS011;4610;50.006;7.490;2022-12-07T14:59:12;63.50;;;9.70;;
9150;SDS011;4610;50.006;7.490;2022-12-07T15:01:38;65.00;;;9.83;;
9150;SDS011;4610;50.006;7.490;2022-12-07T15:04:05;73.63;;;10.70;;
9150;SDS011;4610;50.006;7.490;2022-12-07T15:06:32;74.23;;;10.77;;
9150;SDS011;4610;50.006;7.490;2022-12-07T15:09:03;64.47;;;9.47;;
9150;SDS011;4610;50.006;7.490;2022-12-07T15:11:30;54.27;;;8.23;;
9150;SDS011;4610;50.006;7.490;2022-12-07T15:13:57;79.73;;;11.93;;
9150;SDS011;4610;50.006;7.490;2022-12-07T15:16:39;54.37;;;8.53;;
9150;SDS011;4610;50.006;7.490;2022-12-07T15:19:09;86.67;;;12.67;;
9150;SDS011;4610;50.006;7.490;2022-12-07T15:21:39;68.67;;;10.23;;
9150;SDS011;4610;50.006;7.490;2022-12-07T15:24:07;81.37;;;12.17;;
9150;SDS011;4610;50.006;7.490;2022-12-07T15:26:35;70.20;;;10.07;;
9150;SDS011;4610;50.006;7.490;2022-12-07T15:29:02;69.13;;;10.60;;
9150;SDS011;4610;50.006;7.490;2022-12-07T15:31:29;65.37;;;9.83;;
9150;SDS011;4610;50.006;7.490;2022-12-07T15:33:57;56.17;;;8.63;;
9150;SDS011;4610;50.006;7.490;2022-12-07T15:36:25;69.13;;;10.77;;
9150;SDS011;4610;50.006;7.490;2022-12-07T15:38:55;84.83;;;12.57;;
9150;SDS011;4610;50.006;7.490;2022-12-07T15:41:23;86.53;;;12.27;;
9150;SDS011;4610;50.006;7.490;2022-12-07T15:43:50;62.53;;;9.53;;
9150;SDS011;4610;50.006;7.490;2022-12-07T15:46:36;63.40;;;9.63;;
9150;SDS011;4610;50.006;7.490;2022-12-07T15:49:08;61.17;;;9.20;;
9150;SDS011;4610;50.006;7.490;2022-12-07T15:51:40;86.13;;;12.57;;
9150;SDS011;4610;50.006;7.490;2022-12-07T15:54:07;54.53;;;8.73;;
9150;SDS011;4610;50.006;7.490;2022-12-07T15:56:38;66.30;;;10.70;;
9150;SDS011;4610;50.006;7.490;2022-12-07T15:59:05;70.20;;;11.10;;